createdAt,value
2023-03-28T00:01:03.516Z,102186.84
2023-03-28T00:03:35.923Z,102185.53
2023-03-28T00:06:05.600Z,102190.53
2023-03-28T00:08:33.163Z,102180.00
2023-03-28T00:11:05.839Z,102186.16
2023-03-28T00:13:33.662Z,102193.00
2023-03-28T00:16:07.060Z,102200.63
2023-03-28T00:18:37.631Z,102202.69
2023-03-28T00:21:07.945Z,102200.63
2023-03-28T00:23:35.871Z,102201.13
2023-03-28T00:26:07.952Z,102194.97
2023-03-28T00:28:35.524Z,102192.84
2023-03-28T00:31:05.064Z,102195.28
2023-03-28T00:33:32.760Z,102192.13
2023-03-28T00:36:00.580Z,102197.25
2023-03-28T00:38:28.204Z,102194.63
2023-03-28T00:40:58.802Z,102191.31
2023-03-28T00:43:46.636Z,102183.91
2023-03-28T00:46:21.112Z,102187.22
2023-03-28T00:48:51.631Z,102197.41
2023-03-28T00:51:21.689Z,102188.31
2023-03-28T00:53:49.208Z,102196.50
2023-03-28T00:56:19.700Z,102189.75
2023-03-28T00:58:47.970Z,102185.00
2023-03-28T01:01:20.936Z,102181.09
2023-03-28T01:04:20.598Z,102189.69
2023-03-28T01:06:57.192Z,102190.56
2023-03-28T01:09:25.521Z,102200.97
2023-03-28T01:11:58.857Z,102193.03
2023-03-28T01:14:31.695Z,102183.31
2023-03-28T01:17:08.202Z,102187.50
2023-03-28T01:19:46.474Z,102180.50
2023-03-28T01:22:43.948Z,102176.34
2023-03-28T01:25:56.642Z,102181.44
2023-03-28T01:28:56.991Z,102183.13
2023-03-28T01:31:47.486Z,102183.69
2023-03-28T01:35:19.294Z,102169.50
2023-03-28T01:38:09.405Z,102173.97
2023-03-28T01:41:07.439Z,102161.78
2023-03-28T01:43:52.913Z,102161.84
2023-03-28T01:46:38.301Z,102154.88
2023-03-28T01:49:40.064Z,102148.44
2023-03-28T01:52:33.164Z,102144.03
2023-03-28T01:55:10.729Z,102130.09
2023-03-28T01:58:25.220Z,102130.09
2023-03-28T02:01:09.305Z,102112.00
2023-03-28T02:03:42.317Z,102107.84
2023-03-28T02:06:17.399Z,102105.72
2023-03-28T02:08:45.068Z,102112.03
2023-03-28T02:11:19.292Z,102101.13
2023-03-28T02:14:12.360Z,102104.41
2023-03-28T02:17:04.817Z,102110.03
2023-03-28T02:20:08.963Z,102112.44
2023-03-28T02:23:15.828Z,102121.19
2023-03-28T02:26:01.352Z,102124.41
2023-03-28T02:28:48.859Z,102111.47
2023-03-28T02:31:29.841Z,102112.75
2023-03-28T02:33:58.825Z,102108.16
2023-03-28T02:36:32.209Z,102109.63
2023-03-28T02:39:14.742Z,102097.94
2023-03-28T02:41:56.916Z,102087.09
2023-03-28T02:44:50.110Z,102072.22
2023-03-28T02:47:39.341Z,102086.63
2023-03-28T02:50:18.770Z,102080.41
2023-03-28T02:52:58.584Z,102090.84
2023-03-28T02:55:47.761Z,102083.91
2023-03-28T02:58:46.353Z,102082.59
2023-03-28T03:01:14.621Z,102076.31
2023-03-28T03:03:44.609Z,102073.88
2023-03-28T03:06:12.664Z,102075.78
2023-03-28T03:08:40.030Z,102067.63
2023-03-28T03:11:07.358Z,102062.81
2023-03-28T03:13:34.641Z,102055.09
2023-03-28T03:16:04.136Z,102062.94
2023-03-28T03:18:32.703Z,102053.13
2023-03-28T03:21:02.698Z,102056.28
2023-03-28T03:23:31.008Z,102043.06
2023-03-28T03:26:00.039Z,102046.16
2023-03-28T03:28:39.674Z,102038.44
2023-03-28T03:31:08.172Z,102024.66
2023-03-28T03:33:53.830Z,102027.78
2023-03-28T03:36:27.196Z,102020.88
2023-03-28T03:38:54.670Z,102024.56
2023-03-28T03:41:24.824Z,102024.56
2023-03-28T03:43:52.350Z,102016.69
2023-03-28T03:46:19.656Z,102014.47
2023-03-28T03:48:49.912Z,102017.22
2023-03-28T03:51:18.167Z,102017.06
2023-03-28T03:53:46.761Z,102015.63
2023-03-28T03:56:16.923Z,102009.59
2023-03-28T03:58:56.540Z,102005.69
2023-03-28T04:01:30.155Z,102014.41
2023-03-28T04:04:07.292Z,102003.91
2023-03-28T04:06:51.571Z,101999.31
2023-03-28T04:09:20.638Z,102003.16
2023-03-28T04:11:57.391Z,102010.97
2023-03-28T04:14:24.951Z,102012.72
2023-03-28T04:17:04.938Z,102004.19
2023-03-28T04:19:32.822Z,102001.31
2023-03-28T04:22:00.127Z,102001.94
2023-03-28T04:24:27.551Z,102013.47
2023-03-28T04:27:18.619Z,102007.91
2023-03-28T04:29:47.934Z,102014.28
2023-03-28T04:32:35.933Z,102009.47
2023-03-28T04:35:08.467Z,102013.97
2023-03-28T04:37:37.789Z,102009.06
2023-03-28T04:40:16.312Z,102011.22
2023-03-28T04:43:15.383Z,102004.38
2023-03-28T04:45:49.074Z,102008.94
2023-03-28T04:48:18.283Z,102006.25
2023-03-28T04:50:46.295Z,102007.59
2023-03-28T04:53:14.905Z,102005.47
2023-03-28T04:56:02.748Z,102008.91
2023-03-28T04:58:31.022Z,102007.84
2023-03-28T05:01:03.040Z,102006.91
2023-03-28T05:03:56.655Z,102005.63
2023-03-28T05:06:25.991Z,102013.53
2023-03-28T05:08:53.530Z,102008.81
2023-03-28T05:11:25.647Z,102007.06
2023-03-28T05:13:52.914Z,102008.81
2023-03-28T05:16:28.936Z,102011.09
2023-03-28T05:19:05.255Z,102021.09
2023-03-28T05:22:07.929Z,102022.66
2023-03-28T05:24:38.202Z,102020.94
2023-03-28T05:27:12.674Z,102020.63
2023-03-28T05:29:40.084Z,102011.03
2023-03-28T05:32:08.060Z,102012.91
2023-03-28T05:34:36.163Z,102011.13
2023-03-28T05:37:04.521Z,102019.34
2023-03-28T05:39:43.266Z,102020.06
2023-03-28T05:42:11.051Z,102024.84
2023-03-28T05:44:40.590Z,102021.41
2023-03-28T05:47:28.272Z,102027.34
2023-03-28T05:49:58.285Z,102022.63
2023-03-28T05:52:26.185Z,102026.81
2023-03-28T05:54:56.112Z,102022.97
2023-03-28T05:57:23.523Z,102013.69
2023-03-28T05:59:51.599Z,102018.81
2023-03-28T06:02:23.018Z,102022.03
2023-03-28T06:04:53.651Z,102016.25
2023-03-28T06:07:31.487Z,102014.59
2023-03-28T06:10:09.563Z,102023.19
2023-03-28T06:12:37.906Z,102025.81
2023-03-28T06:15:06.107Z,102029.94
2023-03-28T06:17:37.413Z,102039.47
2023-03-28T06:20:07.788Z,102038.34
2023-03-28T06:22:39.660Z,102046.88
2023-03-28T06:25:11.691Z,102034.97
2023-03-28T06:27:39.260Z,102042.34
2023-03-28T06:30:10.409Z,102037.03
2023-03-28T06:32:46.022Z,102037.44
2023-03-28T06:35:15.757Z,102035.47
2023-03-28T06:37:43.202Z,102046.03
2023-03-28T06:40:11.703Z,102045.75
2023-03-28T06:42:39.379Z,102052.34
2023-03-28T06:45:29.633Z,102052.97
2023-03-28T06:48:02.200Z,102055.28
2023-03-28T06:50:52.609Z,102047.38
2023-03-28T06:53:22.561Z,102041.81
2023-03-28T06:55:51.170Z,102030.25
2023-03-28T06:58:20.175Z,102031.59
2023-03-28T07:00:53.781Z,102030.16
2023-03-28T07:03:45.417Z,102032.22
2023-03-28T07:06:18.267Z,102028.91
2023-03-28T07:08:46.211Z,102023.78
2023-03-28T07:11:18.616Z,102012.03
2023-03-28T07:13:49.429Z,102004.75
2023-03-28T07:16:17.188Z,101997.16
2023-03-28T07:18:44.589Z,101994.19
2023-03-28T07:21:17.442Z,101990.53
2023-03-28T07:23:45.305Z,101988.41
2023-03-28T07:26:15.476Z,101995.06
2023-03-28T07:28:42.809Z,102004.09
2023-03-28T07:31:11.355Z,102007.06
2023-03-28T07:33:38.911Z,102007.56
2023-03-28T07:36:13.820Z,102017.38
2023-03-28T07:38:43.142Z,102029.88
2023-03-28T07:41:10.897Z,102015.81
2023-03-28T07:43:40.144Z,102012.03
2023-03-28T07:46:09.839Z,102023.16
2023-03-28T07:48:38.033Z,102025.53
2023-03-28T07:51:06.529Z,102012.88
2023-03-28T07:53:35.660Z,102021.13
2023-03-28T07:56:03.621Z,102022.59
2023-03-28T07:58:51.230Z,102027.31
2023-03-28T08:01:19.680Z,102033.75
2023-03-28T08:03:50.048Z,102039.56
2023-03-28T08:06:30.932Z,102034.78
2023-03-28T08:09:03.156Z,102027.06
2023-03-28T08:11:39.543Z,102011.94
2023-03-28T08:14:11.303Z,102018.59
2023-03-28T08:16:39.013Z,102019.44
2023-03-28T08:19:11.311Z,102017.09
2023-03-28T08:22:02.481Z,102015.75
2023-03-28T08:24:36.076Z,102014.34
2023-03-28T08:27:13.118Z,102013.03
2023-03-28T08:29:42.378Z,102013.06
2023-03-28T08:32:10.313Z,102014.75
2023-03-28T08:34:38.760Z,102001.81
2023-03-28T08:37:13.774Z,102007.28
2023-03-28T08:39:43.341Z,102018.56
2023-03-28T08:42:28.104Z,102026.25
2023-03-28T08:45:32.181Z,102028.19
2023-03-28T08:48:20.558Z,102018.56
2023-03-28T08:50:51.520Z,102008.72
2023-03-28T08:53:49.993Z,102007.03
2023-03-28T08:56:17.881Z,101993.00
2023-03-28T08:59:27.152Z,101999.34
2023-03-28T09:01:54.689Z,101998.53
2023-03-28T09:04:39.357Z,101990.28
2023-03-28T09:07:17.239Z,101987.50
2023-03-28T09:09:56.822Z,101992.19
2023-03-28T09:12:47.083Z,101990.53
2023-03-28T09:15:20.749Z,101995.78
2023-03-28T09:18:10.410Z,101980.91
2023-03-28T09:21:37.415Z,101976.75
2023-03-28T09:24:17.530Z,101985.88
2023-03-28T09:27:02.576Z,101989.97
2023-03-28T09:29:34.529Z,101986.38
2023-03-28T09:32:13.285Z,101987.69
2023-03-28T09:34:49.309Z,101978.91
2023-03-28T09:37:31.824Z,101969.75
2023-03-28T09:40:22.946Z,101961.78
2023-03-28T09:43:35.463Z,101947.22
2023-03-28T09:46:18.840Z,101953.88
2023-03-28T09:48:59.987Z,101941.47
2023-03-28T09:51:31.874Z,101935.94
2023-03-28T09:53:59.469Z,101936.06
2023-03-28T09:56:37.270Z,101926.31
2023-03-28T09:59:40.662Z,101923.97
2023-03-28T10:02:30.907Z,101921.91
2023-03-28T10:05:02.855Z,101923.13
2023-03-28T10:07:44.704Z,101920.47
2023-03-28T10:10:22.421Z,101910.09
2023-03-28T10:13:04.826Z,101919.53
2023-03-28T10:15:50.124Z,101912.06
2023-03-28T10:18:35.813Z,101911.84
2023-03-28T10:21:20.995Z,101911.22
2023-03-28T10:24:04.060Z,101906.72
2023-03-28T10:26:31.654Z,101898.25
2023-03-28T10:29:04.738Z,101905.44
2023-03-28T10:31:33.269Z,101906.88
2023-03-28T10:34:29.766Z,101904.09
2023-03-28T10:37:30.041Z,101903.88
2023-03-28T10:40:19.172Z,101897.25
2023-03-28T10:43:14.655Z,101900.97
2023-03-28T10:45:47.205Z,101892.75
2023-03-28T10:48:22.636Z,101892.69
2023-03-28T10:50:53.650Z,101883.94
2023-03-28T10:53:37.169Z,101868.81
2023-03-28T10:56:24.677Z,101867.50
2023-03-28T10:59:31.125Z,101863.53
2023-03-28T11:02:24.271Z,101853.19
2023-03-28T11:05:01.904Z,101856.59
2023-03-28T11:07:45.448Z,101851.97
2023-03-28T11:10:32.646Z,101853.75
2023-03-28T11:13:22.330Z,101840.91
2023-03-28T11:15:50.030Z,101842.25
2023-03-28T11:18:56.459Z,101842.34
2023-03-28T11:21:52.340Z,101835.34
2023-03-28T11:24:20.174Z,101816.06
2023-03-28T11:27:27.529Z,101823.41
2023-03-28T11:30:17.791Z,101832.72
2023-03-28T11:32:59.700Z,101829.72
2023-03-28T11:36:09.848Z,101820.88
2023-03-28T11:38:41.190Z,101823.31
2023-03-28T11:41:22.962Z,101814.34
2023-03-28T11:44:21.393Z,101811.03
2023-03-28T11:46:59.576Z,101805.84
2023-03-28T11:49:38.240Z,101798.16
2023-03-28T11:52:44.994Z,101807.72
2023-03-28T11:55:17.514Z,101798.13
2023-03-28T11:57:58.006Z,101796.88
2023-03-28T12:00:34.521Z,101783.53
2023-03-28T12:03:34.337Z,101765.59
2023-03-28T12:06:05.803Z,101744.47
2023-03-28T12:08:49.678Z,101751.19
2023-03-28T12:11:52.641Z,101769.16
2023-03-28T12:14:36.379Z,101772.44
2023-03-28T12:17:21.147Z,101768.81
2023-03-28T12:19:49.182Z,101762.97
2023-03-28T12:22:26.616Z,101752.63
2023-03-28T12:25:00.357Z,101760.78
2023-03-28T12:27:57.224Z,101747.66
2023-03-28T12:30:35.712Z,101738.69
2023-03-28T12:33:37.843Z,101743.06
2023-03-28T12:36:18.609Z,101747.94
2023-03-28T12:39:03.421Z,101739.13
2023-03-28T12:41:38.163Z,101714.22
2023-03-28T12:44:15.514Z,101701.63
2023-03-28T12:46:55.864Z,101702.97
2023-03-28T12:49:42.199Z,101716.44
2023-03-28T12:52:16.515Z,101706.41
2023-03-28T12:55:01.085Z,101715.31
2023-03-28T12:57:40.507Z,101697.81
2023-03-28T13:00:24.336Z,101701.09
2023-03-28T13:03:57.392Z,101712.16
2023-03-28T13:06:48.162Z,101703.06
2023-03-28T13:09:40.262Z,101688.31
2023-03-28T13:12:22.640Z,101693.84
2023-03-28T13:15:23.437Z,101684.94
2023-03-28T13:18:21.784Z,101672.63
2023-03-28T13:20:51.669Z,101680.06
2023-03-28T13:23:25.266Z,101668.53
2023-03-28T13:25:57.694Z,101676.69
2023-03-28T13:28:54.548Z,101689.72
2023-03-28T13:31:24.588Z,101683.78
2023-03-28T13:33:52.212Z,101681.69
2023-03-28T13:36:22.440Z,101690.28
2023-03-28T13:38:59.956Z,101675.63
2023-03-28T13:41:42.690Z,101656.84
2023-03-28T13:44:20.804Z,101652.13
2023-03-28T13:46:49.445Z,101648.16
2023-03-28T13:49:24.388Z,101651.78
2023-03-28T13:51:52.207Z,101638.06
2023-03-28T13:54:19.878Z,101635.66
2023-03-28T13:56:48.861Z,101633.44
2023-03-28T13:59:25.136Z,101647.63
2023-03-28T14:02:00.642Z,101644.84
2023-03-28T14:04:32.747Z,101637.19
2023-03-28T14:07:01.598Z,101624.19
2023-03-28T14:09:28.797Z,101618.88
2023-03-28T14:12:12.083Z,101608.41
2023-03-28T14:14:51.117Z,101593.09
2023-03-28T14:17:22.069Z,101586.34
2023-03-28T14:19:57.092Z,101579.31
2023-03-28T14:22:27.090Z,101569.75
2023-03-28T14:24:58.486Z,101544.63
2023-03-28T14:27:39.165Z,101549.00
2023-03-28T14:30:17.374Z,101538.28
2023-03-28T14:32:57.356Z,101528.00
2023-03-28T14:35:29.107Z,101513.88
2023-03-28T14:37:58.915Z,101510.78
2023-03-28T14:40:33.396Z,101501.53
2023-03-28T14:43:04.689Z,101494.78
2023-03-28T14:45:37.906Z,101490.72
2023-03-28T14:48:08.852Z,101482.34
2023-03-28T14:50:39.260Z,101481.53
2023-03-28T14:53:11.505Z,101472.72
2023-03-28T14:55:39.354Z,101470.38
2023-03-28T14:58:06.722Z,101457.78
2023-03-28T15:00:39.116Z,101449.78
2023-03-28T15:03:12.217Z,101439.56
2023-03-28T15:05:39.579Z,101443.25
2023-03-28T15:08:37.850Z,101441.09
2023-03-28T15:11:09.274Z,101450.13
2023-03-28T15:13:40.734Z,101422.81
2023-03-28T15:16:09.152Z,101419.09
2023-03-28T15:18:44.277Z,101395.69
2023-03-28T15:21:12.217Z,101398.94
2023-03-28T15:23:49.190Z,101407.75
2023-03-28T15:26:26.524Z,101399.25
2023-03-28T15:28:55.394Z,101387.88
2023-03-28T15:31:23.253Z,101394.94
2023-03-28T15:33:52.497Z,101400.56
2023-03-28T15:36:24.066Z,101373.03
2023-03-28T15:39:02.455Z,101377.88
2023-03-28T15:41:48.144Z,101388.53
2023-03-28T15:44:33.147Z,101389.13
2023-03-28T15:47:22.066Z,101387.91
2023-03-28T15:49:50.718Z,101375.91
2023-03-28T15:52:20.774Z,101374.78
2023-03-28T15:54:54.512Z,101371.41
2023-03-28T15:57:24.965Z,101390.22
2023-03-28T15:59:52.269Z,101394.94
2023-03-28T16:02:22.948Z,101394.91
2023-03-28T16:05:13.217Z,101377.53
2023-03-28T16:07:47.357Z,101394.94
2023-03-28T16:10:17.300Z,101395.75
2023-03-28T16:13:14.955Z,101373.63
2023-03-28T16:16:05.216Z,101387.28
2023-03-28T16:19:01.800Z,101386.03
2023-03-28T16:21:29.600Z,101383.88
2023-03-28T16:23:56.886Z,101375.69
2023-03-28T16:26:25.765Z,101367.31
2023-03-28T16:28:53.050Z,101380.72
2023-03-28T16:31:20.912Z,101379.91
2023-03-28T16:33:48.972Z,101393.66
2023-03-28T16:36:17.463Z,101379.94
2023-03-28T16:38:45.802Z,101389.16
2023-03-28T16:41:17.097Z,101366.66
2023-03-28T16:43:45.245Z,101377.38
2023-03-28T16:46:13.345Z,101359.06
2023-03-28T16:48:41.677Z,101361.22
2023-03-28T16:51:13.161Z,101359.09
2023-03-28T16:53:41.020Z,101345.13
2023-03-28T16:56:11.857Z,101330.34
2023-03-28T16:58:39.414Z,101329.69
2023-03-28T17:01:19.225Z,101334.06
2023-03-28T17:03:47.138Z,101344.19
2023-03-28T17:06:16.718Z,101351.22
2023-03-28T17:08:44.381Z,101327.22
2023-03-28T17:11:13.702Z,101323.94
2023-03-28T17:13:42.167Z,101304.31
2023-03-28T17:16:10.767Z,101293.44
2023-03-28T17:18:38.924Z,101305.06
2023-03-28T17:21:11.777Z,101314.63
2023-03-28T17:23:40.742Z,101316.97
2023-03-28T17:26:09.573Z,101309.84
2023-03-28T17:28:39.271Z,101296.00
2023-03-28T17:31:08.935Z,101298.53
2023-03-28T17:33:36.519Z,101296.72
2023-03-28T17:36:36.423Z,101302.53
2023-03-28T17:39:04.488Z,101293.34
2023-03-28T17:41:32.237Z,101283.03
2023-03-28T17:44:09.909Z,101272.19
2023-03-28T17:46:39.309Z,101283.31
2023-03-28T17:49:08.222Z,101293.84
2023-03-28T17:51:35.545Z,101301.75
2023-03-28T17:54:04.940Z,101309.50
2023-03-28T17:56:32.392Z,101316.97
2023-03-28T17:58:59.901Z,101320.44
2023-03-28T18:01:27.392Z,101316.16
2023-03-28T18:03:55.169Z,101310.00
2023-03-28T18:06:42.628Z,101306.34
2023-03-28T18:09:10.181Z,101291.81
2023-03-28T18:11:39.230Z,101288.97
2023-03-28T18:14:08.435Z,101287.31
2023-03-28T18:16:36.396Z,101287.38
2023-03-28T18:19:06.752Z,101287.78
2023-03-28T18:21:34.232Z,101305.19
2023-03-28T18:24:01.455Z,101302.19
2023-03-28T18:26:28.993Z,101301.94
2023-03-28T18:28:56.762Z,101300.28
2023-03-28T18:31:28.139Z,101295.28
2023-03-28T18:33:57.272Z,101304.69
2023-03-28T18:36:25.286Z,101302.63
2023-03-28T18:38:56.151Z,101298.44
2023-03-28T18:41:24.227Z,101299.41
2023-03-28T18:43:51.457Z,101302.25
2023-03-28T18:46:18.855Z,101303.56
2023-03-28T18:48:46.385Z,101303.03
2023-03-28T18:51:14.002Z,101298.56
2023-03-28T18:53:41.770Z,101298.88
2023-03-28T18:56:10.462Z,101297.13
2023-03-28T18:58:38.384Z,101294.56
2023-03-28T19:01:08.856Z,101302.50
2023-03-28T19:03:40.368Z,101316.41
2023-03-28T19:06:10.076Z,101315.34
2023-03-28T19:08:37.456Z,101311.75
2023-03-28T19:11:13.396Z,101305.16
2023-03-28T19:13:41.473Z,101304.88
2023-03-28T19:16:11.755Z,101311.53
2023-03-28T19:18:40.648Z,101315.03
2023-03-28T19:21:09.150Z,101314.06
2023-03-28T19:23:36.992Z,101308.47
2023-03-28T19:26:05.815Z,101309.28
2023-03-28T19:28:33.230Z,101310.53
2023-03-28T19:31:11.677Z,101315.22
2023-03-28T19:33:40.769Z,101311.31
2023-03-28T19:36:08.781Z,101316.22
2023-03-28T19:38:37.804Z,101309.91
2023-03-28T19:41:10.458Z,101304.00
2023-03-28T19:43:39.162Z,101307.94
2023-03-28T19:46:08.674Z,101301.31
2023-03-28T19:48:36.964Z,101297.66
2023-03-28T19:51:04.311Z,101298.44
2023-03-28T19:53:32.385Z,101299.50
2023-03-28T19:56:00.840Z,101296.13
2023-03-28T19:58:28.458Z,101301.84
2023-03-28T20:00:56.853Z,101290.50
2023-03-28T20:03:24.581Z,101286.00
2023-03-28T20:05:52.074Z,101294.16
2023-03-28T20:08:19.870Z,101300.69
2023-03-28T20:10:49.618Z,101295.81
2023-03-28T20:13:18.674Z,101294.25
2023-03-28T20:15:46.611Z,101290.66
2023-03-28T20:18:19.972Z,101283.41
2023-03-28T20:20:58.390Z,101287.91
2023-03-28T20:23:27.095Z,101283.63
2023-03-28T20:25:55.325Z,101282.00
2023-03-28T20:28:26.522Z,101282.31
2023-03-28T20:30:54.314Z,101288.09
2023-03-28T20:33:21.820Z,101292.16
2023-03-28T20:35:59.214Z,101283.00
2023-03-28T20:38:27.418Z,101271.84
2023-03-28T20:40:54.794Z,101262.84
2023-03-28T20:43:24.127Z,101257.84
2023-03-28T20:45:56.148Z,101261.97
2023-03-28T20:48:34.956Z,101255.19
2023-03-28T20:51:04.016Z,101260.41
2023-03-28T20:53:33.112Z,101254.78
2023-03-28T20:56:02.323Z,101258.16
2023-03-28T20:58:33.116Z,101270.41
2023-03-28T21:01:01.927Z,101272.75
2023-03-28T21:03:48.628Z,101284.34
2023-03-28T21:06:39.716Z,101285.09
2023-03-28T21:09:09.806Z,101288.66
2023-03-28T21:11:37.764Z,101285.03
2023-03-28T21:14:06.647Z,101287.34
2023-03-28T21:16:34.541Z,101290.81
2023-03-28T21:19:02.705Z,101279.00
2023-03-28T21:21:33.044Z,101291.22
2023-03-28T21:24:00.951Z,101283.91
2023-03-28T21:26:29.325Z,101282.09
2023-03-28T21:28:56.868Z,101286.50
2023-03-28T21:31:28.657Z,101285.38
2023-03-28T21:33:57.340Z,101279.75
2023-03-28T21:36:26.459Z,101273.09
2023-03-28T21:38:54.629Z,101283.22
2023-03-28T21:41:22.527Z,101272.19
2023-03-28T21:43:50.548Z,101267.38
2023-03-28T21:46:20.941Z,101259.63
2023-03-28T21:48:48.615Z,101266.97
2023-03-28T21:51:17.457Z,101267.50
2023-03-28T21:53:45.861Z,101256.84
2023-03-28T21:56:14.872Z,101255.13
2023-03-28T21:58:42.361Z,101262.59
2023-03-28T22:01:13.702Z,101255.22
2023-03-28T22:03:41.368Z,101259.84
2023-03-28T22:06:09.002Z,101262.78
2023-03-28T22:08:36.729Z,101255.53
2023-03-28T22:11:14.440Z,101254.41
2023-03-28T22:13:42.696Z,101255.13
2023-03-28T22:16:12.732Z,101258.88
2023-03-28T22:18:41.699Z,101257.78
2023-03-28T22:21:09.651Z,101258.06
2023-03-28T22:23:37.300Z,101251.44
2023-03-28T22:26:04.764Z,101246.03
2023-03-28T22:28:32.007Z,101251.44
2023-03-28T22:30:59.447Z,101243.31
2023-03-28T22:33:31.093Z,101241.84
2023-03-28T22:35:58.602Z,101246.25
2023-03-28T22:38:25.959Z,101242.13
2023-03-28T22:40:53.443Z,101245.63
2023-03-28T22:43:20.724Z,101246.56
2023-03-28T22:45:47.970Z,101244.69
2023-03-28T22:48:15.273Z,101244.78
2023-03-28T22:50:47.238Z,101240.91
2023-03-28T22:53:15.038Z,101240.69
2023-03-28T22:55:43.644Z,101246.44
2023-03-28T22:58:11.874Z,101247.25
2023-03-28T23:00:39.207Z,101249.09
2023-03-28T23:03:08.005Z,101259.13
2023-03-28T23:05:36.199Z,101248.56
2023-03-28T23:08:04.715Z,101236.31
2023-03-28T23:10:32.509Z,101232.72
2023-03-28T23:13:00.312Z,101231.53
2023-03-28T23:15:27.627Z,101225.34
2023-03-28T23:17:54.914Z,101223.44
2023-03-28T23:20:22.725Z,101227.50
2023-03-28T23:22:50.199Z,101233.66
2023-03-28T23:25:18.775Z,101219.06
2023-03-28T23:27:46.600Z,101215.59
2023-03-28T23:30:14.976Z,101211.97
2023-03-28T23:32:42.330Z,101208.63
2023-03-28T23:35:10.818Z,101210.84
2023-03-28T23:37:38.516Z,101213.94
2023-03-28T23:40:10.922Z,101202.78
2023-03-28T23:42:38.297Z,101199.59
2023-03-28T23:45:06.010Z,101198.28
2023-03-28T23:47:33.288Z,101205.56
2023-03-28T23:50:00.621Z,101197.66
2023-03-28T23:52:27.943Z,101209.00
2023-03-28T23:57:25.261Z,101208.00
2023-03-28T23:59:52.674Z,101190.28
